WXM80 ListenWXM80 Stop

You find our weather info also at:

UK Metoffice

WeatherCloud

Weather Underground

Northeastern Weather Network

AWEKAS

Citizen Weather Observer Program (CWOP)

HAMweather, WeatherForYou, PWS Weather


Weather Underground History page Text

Daily Summary for January 18, 2017 Units:  Both    English   Metric
« Previous Day
Next Day »
Daily Weekly Monthly Yearly Custom
  High: Low: Average:
Temperature: 40.4 °F /  4.7 °C 38.5 °F /  3.6 °C 39.6 °F /  4.2 °C
Dew Point: 39.7 °F /  4.3 °C 37.2 °F /  2.9 °C 38.6 °F /  3.7 °C
Humidity: 98 % 94 % 96 %
Wind Speed: 11.0 mph /  17.7 km/h - 4 mph /  6.4 km/h
Wind Gust: 16.1 mph /  25.9 km/h - -
Wind:- - East
Pressure: 30.02 in /  1016.5 hPa 29.83 in /  1010 hPa -
Precipitation: 0.00 in /  0 mm    
Historical Graphs
 
 
Tabular Data for January 18, 2017
Time Temperature Dew Point Pressure Wind Wind Speed Wind Gust Humidity Rainfall Rate (Hourly)
00:04 38.5 °F /  3.6 °C 37.7 °F /  3.2 °C 29.93 in /  1013.4 hPa ENE 7.0 mph /  11.3 km/h 12.0 mph /  19.3 km/h 97 % 0.00 in /  0 mm
00:09 38.5 °F /  3.6 °C 37.7 °F /  3.2 °C 29.93 in /  1013.4 hPa ENE 8.0 mph /  12.9 km/h 12.7 mph /  20.4 km/h 97 % 0.00 in /  0 mm
00:14 38.5 °F /  3.6 °C 37.7 °F /  3.2 °C 29.93 in /  1013.4 hPa ENE 8.0 mph /  12.9 km/h 12.0 mph /  19.3 km/h 97 % 0.00 in /  0 mm
00:19 38.6 °F /  3.7 °C 37.8 °F /  3.2 °C 29.93 in /  1013.4 hPa NE 6.2 mph /  10 km/h 10.4 mph /  16.7 km/h 97 % 0.00 in /  0 mm
00:24 38.6 °F /  3.7 °C 37.8 °F /  3.2 °C 29.93 in /  1013.4 hPa ENE 6.0 mph /  9.7 km/h 13.0 mph /  20.9 km/h 97 % 0.00 in /  0 mm
00:29 38.6 °F /  3.7 °C 37.8 °F /  3.2 °C 29.93 in /  1013.4 hPa ENE 6.0 mph /  9.7 km/h 11.0 mph /  17.7 km/h 97 % 0.00 in /  0 mm
00:34 38.6 °F /  3.7 °C 37.8 °F /  3.2 °C 29.92 in /  1013.1 hPa NE 9.0 mph /  14.5 km/h 11.5 mph /  18.5 km/h 97 % 0.01 in /  0.25 mm
00:39 38.7 °F /  3.7 °C 37.9 °F /  3.3 °C 29.92 in /  1013.1 hPa ENE 6.5 mph /  10.5 km/h 12.7 mph /  20.4 km/h 97 % 0.01 in /  0.25 mm
00:44 38.7 °F /  3.7 °C 37.9 °F /  3.3 °C 29.91 in /  1012.8 hPa ENE 8.0 mph /  12.9 km/h 13.0 mph /  20.9 km/h 97 % 0.00 in /  0 mm
00:49 38.7 °F /  3.7 °C 37.9 °F /  3.3 °C 29.91 in /  1012.8 hPa ENE 10.0 mph /  16.1 km/h 14.0 mph /  22.5 km/h 97 % 0.01 in /  0.25 mm
00:54 38.8 °F /  3.8 °C 38.0 °F /  3.3 °C 29.91 in /  1012.8 hPa ENE 8.0 mph /  12.9 km/h 12.0 mph /  19.3 km/h 97 % 0.00 in /  0 mm
00:59 38.7 °F /  3.7 °C 37.9 °F /  3.3 °C 29.90 in /  1012.4 hPa ENE 9.8 mph /  15.8 km/h 13.8 mph /  22.2 km/h 97 % 0.03 in /  0.76 mm
01:04 38.8 °F /  3.8 °C 38.0 °F /  3.3 °C 29.90 in /  1012.4 hPa ENE 9.0 mph /  14.5 km/h 16.0 mph /  25.7 km/h 97 % 0.00 in /  0 mm
01:09 38.8 °F /  3.8 °C 38.0 °F /  3.3 °C 29.90 in /  1012.4 hPa ENE 9.0 mph /  14.5 km/h 15.0 mph /  24.1 km/h 97 % 0.00 in /  0 mm
01:14 38.9 °F /  3.8 °C 38.1 °F /  3.4 °C 29.90 in /  1012.4 hPa ENE 7.3 mph /  11.7 km/h 13.8 mph /  22.2 km/h 97 % 0.03 in /  0.76 mm
01:19 38.9 °F /  3.8 °C 38.1 °F /  3.4 °C 29.89 in /  1012.1 hPa ENE 7.9 mph /  12.7 km/h 11.0 mph /  17.7 km/h 97 % 0.03 in /  0.76 mm
01:24 38.9 °F /  3.8 °C 38.1 °F /  3.4 °C 29.89 in /  1012.1 hPa ENE 8.0 mph /  12.9 km/h 13.0 mph /  20.9 km/h 97 % 0.00 in /  0 mm
01:29 39.0 °F /  3.9 °C 38.2 °F /  3.4 °C 29.89 in /  1012.1 hPa ENE 9.0 mph /  14.5 km/h 15.0 mph /  24.1 km/h 97 % 0.00 in /  0 mm
01:34 39.1 °F /  3.9 °C 38.3 °F /  3.5 °C 29.89 in /  1012.1 hPa ENE 9.0 mph /  14.5 km/h 14.0 mph /  22.5 km/h 97 % 0.00 in /  0 mm
01:39 39.1 °F /  3.9 °C 38.3 °F /  3.5 °C 29.89 in /  1012.1 hPa ENE 6.0 mph /  9.7 km/h 10.0 mph /  16.1 km/h 97 % 0.00 in /  0 mm
01:44 39.2 °F /  4 °C 38.7 °F /  3.7 °C 29.89 in /  1012.1 hPa ENE 9.0 mph /  14.5 km/h 14.0 mph /  22.5 km/h 98 % 0.00 in /  0 mm
01:49 39.4 °F /  4.1 °C 38.9 °F /  3.8 °C 29.90 in /  1012.4 hPa ENE 9.0 mph /  14.5 km/h 15.0 mph /  24.1 km/h 98 % 0.00 in /  0 mm
01:54 39.5 °F /  4.2 °C 38.7 °F /  3.7 °C 29.90 in /  1012.4 hPa ENE 9.0 mph /  14.5 km/h 13.0 mph /  20.9 km/h 97 % 0.00 in /  0 mm
01:59 39.5 °F /  4.2 °C 38.7 °F /  3.7 °C 29.89 in /  1012.1 hPa ENE 7.8 mph /  12.6 km/h 12.7 mph /  20.4 km/h 97 % 0.00 in /  0 mm
02:04 39.5 °F /  4.2 °C 38.7 °F /  3.7 °C 29.89 in /  1012.1 hPa ENE 8.7 mph /  14 km/h 13.0 mph /  20.9 km/h 97 % 0.00 in /  0 mm
02:09 39.5 °F /  4.2 °C 38.7 °F /  3.7 °C 29.89 in /  1012.1 hPa ENE 9.3 mph /  15 km/h 13.8 mph /  22.2 km/h 97 % 0.00 in /  0 mm
02:14 39.5 °F /  4.2 °C 38.7 °F /  3.7 °C 29.89 in /  1012.1 hPa NE 6.7 mph /  10.8 km/h 9.2 mph /  14.8 km/h 97 % 0.00 in /  0 mm
02:19 39.4 °F /  4.1 °C 38.9 °F /  3.8 °C 29.88 in /  1011.7 hPa ENE 7.9 mph /  12.7 km/h 11.5 mph /  18.5 km/h 98 % 0.00 in /  0 mm
02:24 39.4 °F /  4.1 °C 38.9 °F /  3.8 °C 29.87 in /  1011.4 hPa ENE 6.4 mph /  10.3 km/h 8.1 mph /  13 km/h 98 % 0.00 in /  0 mm
02:29 39.4 °F /  4.1 °C 38.9 °F /  3.8 °C 29.86 in /  1011.1 hPa ESE 7.8 mph /  12.6 km/h 11.5 mph /  18.5 km/h 98 % 0.00 in /  0 mm
02:34 39.4 °F /  4.1 °C 38.9 °F /  3.8 °C 29.86 in /  1011.1 hPa East 6.1 mph /  9.8 km/h 9.2 mph /  14.8 km/h 98 % 0.00 in /  0 mm
02:39 39.4 °F /  4.1 °C 38.9 °F /  3.8 °C 29.86 in /  1011.1 hPa East 7.5 mph /  12.1 km/h 10.4 mph /  16.7 km/h 98 % 0.00 in /  0 mm
02:44 39.5 °F /  4.2 °C 38.7 °F /  3.7 °C 29.88 in /  1011.7 hPa East 6.0 mph /  9.7 km/h 9.2 mph /  14.8 km/h 97 % 0.00 in /  0 mm
02:49 39.5 °F /  4.2 °C 38.7 °F /  3.7 °C 29.88 in /  1011.7 hPa ENE 6.3 mph /  10.1 km/h 8.1 mph /  13 km/h 97 % 0.00 in /  0 mm
02:55 39.6 °F /  4.2 °C 39.1 °F /  3.9 °C 29.88 in /  1011.7 hPa ENE 6.3 mph /  10.1 km/h 9.2 mph /  14.8 km/h 98 % 0.00 in /  0 mm
03:00 39.7 °F /  4.3 °C 39.2 °F /  4 °C 29.87 in /  1011.4 hPa ENE 7.3 mph /  11.7 km/h 9.2 mph /  14.8 km/h 98 % 0.00 in /  0 mm
03:05 39.7 °F /  4.3 °C 39.2 °F /  4 °C 29.87 in /  1011.4 hPa ENE 6.5 mph /  10.5 km/h 9.2 mph /  14.8 km/h 98 % 0.00 in /  0 mm
03:10 39.8 °F /  4.3 °C 39.3 °F /  4.1 °C 29.87 in /  1011.4 hPa NE 8.0 mph /  12.9 km/h 11.5 mph /  18.5 km/h 98 % 0.00 in /  0 mm
03:15 39.8 °F /  4.3 °C 39.3 °F /  4.1 °C 29.86 in /  1011.1 hPa ENE 5.8 mph /  9.3 km/h 8.1 mph /  13 km/h 98 % 0.01 in /  0.25 mm
03:20 39.8 °F /  4.3 °C 39.3 °F /  4.1 °C 29.86 in /  1011.1 hPa ENE 5.2 mph /  8.4 km/h 6.9 mph /  11.1 km/h 98 % 0.01 in /  0.25 mm
03:25 39.8 °F /  4.3 °C 39.3 °F /  4.1 °C 29.86 in /  1011.1 hPa ENE 5.8 mph /  9.3 km/h 8.1 mph /  13 km/h 98 % 0.02 in /  0.51 mm
03:30 39.8 °F /  4.3 °C 39.3 °F /  4.1 °C 29.85 in /  1010.7 hPa East 8.7 mph /  14 km/h 12.7 mph /  20.4 km/h 98 % 0.02 in /  0.51 mm
03:35 39.7 °F /  4.3 °C 39.2 °F /  4 °C 29.86 in /  1011.1 hPa NE 5.4 mph /  8.7 km/h 9.2 mph /  14.8 km/h 98 % 0.02 in /  0.51 mm
03:40 39.5 °F /  4.2 °C 39.0 °F /  3.9 °C 29.86 in /  1011.1 hPa NE 8.4 mph /  13.5 km/h 11.5 mph /  18.5 km/h 98 % 0.02 in /  0.51 mm
03:45 39.4 °F /  4.1 °C 38.9 °F /  3.8 °C 29.85 in /  1010.7 hPa NE 6.9 mph /  11.1 km/h 11.5 mph /  18.5 km/h 98 % 0.02 in /  0.51 mm
03:50 39.4 °F /  4.1 °C 38.9 °F /  3.8 °C 29.86 in /  1011.1 hPa NE 7.3 mph /  11.7 km/h 11.5 mph /  18.5 km/h 98 % 0.02 in /  0.51 mm
03:55 39.3 °F /  4.1 °C 38.8 °F /  3.8 °C 29.86 in /  1011.1 hPa NE 4.0 mph /  6.4 km/h 9.2 mph /  14.8 km/h 98 % 0.02 in /  0.51 mm
04:00 39.3 °F /  4.1 °C 38.5 °F /  3.6 °C 29.87 in /  1011.4 hPa ENE 6.7 mph /  10.8 km/h 11.5 mph /  18.5 km/h 97 % 0.02 in /  0.51 mm
04:05 39.3 °F /  4.1 °C 38.5 °F /  3.6 °C 29.87 in /  1011.4 hPa NNE 5.0 mph /  8 km/h 8.1 mph /  13 km/h 97 % 0.02 in /  0.51 mm
04:10 39.3 °F /  4.1 °C 38.8 °F /  3.8 °C 29.87 in /  1011.4 hPa NNE 5.6 mph /  9 km/h 8.1 mph /  13 km/h 98 % 0.02 in /  0.51 mm
04:15 39.3 °F /  4.1 °C 38.5 °F /  3.6 °C 29.86 in /  1011.1 hPa NE 9.9 mph /  15.9 km/h 12.0 mph /  19.3 km/h 97 % 0.01 in /  0.25 mm
04:20 39.3 °F /  4.1 °C 38.8 °F /  3.8 °C 29.87 in /  1011.4 hPa ENE 7.2 mph /  11.6 km/h 9.2 mph /  14.8 km/h 98 % 0.01 in /  0.25 mm
04:25 39.3 °F /  4.1 °C 38.8 °F /  3.8 °C 29.87 in /  1011.4 hPa ENE 6.9 mph /  11.1 km/h 10.4 mph /  16.7 km/h 98 % 0.00 in /  0 mm
04:31 39.3 °F /  4.1 °C 38.8 °F /  3.8 °C 29.88 in /  1011.7 hPa NE 4.5 mph /  7.2 km/h 8.1 mph /  13 km/h 98 % 0.01 in /  0.25 mm
04:36 39.3 °F /  4.1 °C 38.8 °F /  3.8 °C 29.88 in /  1011.7 hPa ENE 4.7 mph /  7.6 km/h 10.4 mph /  16.7 km/h 98 % 0.02 in /  0.51 mm
04:41 39.4 °F /  4.1 °C 38.9 °F /  3.8 °C 29.87 in /  1011.4 hPa NE 9.0 mph /  14.5 km/h 11.5 mph /  18.5 km/h 98 % 0.02 in /  0.51 mm
04:46 39.4 °F /  4.1 °C 38.9 °F /  3.8 °C 29.87 in /  1011.4 hPa ENE 6.4 mph /  10.3 km/h 9.0 mph /  14.5 km/h 98 % 0.03 in /  0.76 mm
04:52 39.4 °F /  4.1 °C 38.9 °F /  3.8 °C 29.87 in /  1011.4 hPa ENE 5.4 mph /  8.7 km/h 9.2 mph /  14.8 km/h 98 % 0.03 in /  0.76 mm
04:57 39.4 °F /  4.1 °C 38.9 °F /  3.8 °C 29.86 in /  1011.1 hPa ENE 6.1 mph /  9.8 km/h 10.4 mph /  16.7 km/h 98 % 0.03 in /  0.76 mm
05:02 39.5 °F /  4.2 °C 39.0 °F /  3.9 °C 29.85 in /  1010.7 hPa East 5.7 mph /  9.2 km/h 9.2 mph /  14.8 km/h 98 % 0.03 in /  0.76 mm
05:07 39.5 °F /  4.2 °C 39.0 °F /  3.9 °C 29.85 in /  1010.7 hPa ENE 7.7 mph /  12.4 km/h 8.1 mph /  13 km/h 98 % 0.04 in /  1.02 mm
05:12 39.5 °F /  4.2 °C 39.0 °F /  3.9 °C 29.84 in /  1010.4 hPa East 7.3 mph /  11.7 km/h 9.2 mph /  14.8 km/h 98 % 0.04 in /  1.02 mm
05:17 39.6 °F /  4.2 °C 39.1 °F /  3.9 °C 29.83 in /  1010 hPa ENE 7.6 mph /  12.2 km/h 10.4 mph /  16.7 km/h 98 % 0.04 in /  1.02 mm
05:22 39.7 °F /  4.3 °C 39.2 °F /  4 °C 29.83 in /  1010 hPa ENE 8.8 mph /  14.2 km/h 11.0 mph /  17.7 km/h 98 % 0.04 in /  1.02 mm
05:27 39.8 °F /  4.3 °C 39.3 °F /  4.1 °C 29.84 in /  1010.4 hPa NE 9.7 mph /  15.6 km/h 13.8 mph /  22.2 km/h 98 % 0.04 in /  1.02 mm
05:32 39.9 °F /  4.4 °C 39.4 °F /  4.1 °C 29.84 in /  1010.4 hPa East 8.0 mph /  12.9 km/h 11.5 mph /  18.5 km/h 98 % 0.03 in /  0.76 mm
05:37 40.0 °F /  4.4 °C 39.5 °F /  4.2 °C 29.84 in /  1010.4 hPa ENE 8.8 mph /  14.2 km/h 11.5 mph /  18.5 km/h 98 % 0.02 in /  0.51 mm
05:42 40.1 °F /  4.5 °C 39.6 °F /  4.2 °C 29.84 in /  1010.4 hPa ENE 11.0 mph /  17.7 km/h 15.0 mph /  24.1 km/h 98 % 0.02 in /  0.51 mm
05:47 40.1 °F /  4.5 °C 39.6 °F /  4.2 °C 29.85 in /  1010.7 hPa ENE 10.9 mph /  17.5 km/h 15.0 mph /  24.1 km/h 98 % 0.01 in /  0.25 mm
05:52 40.1 °F /  4.5 °C 39.6 °F /  4.2 °C 29.85 in /  1010.7 hPa ENE 9.3 mph /  15 km/h 16.1 mph /  25.9 km/h 98 % 0.01 in /  0.25 mm
05:58 40.1 °F /  4.5 °C 39.6 °F /  4.2 °C 29.86 in /  1011.1 hPa ENE 8.7 mph /  14 km/h 11.5 mph /  18.5 km/h 98 % 0.01 in /  0.25 mm
06:03 40.1 °F /  4.5 °C 39.6 °F /  4.2 °C 29.86 in /  1011.1 hPa NE 9.8 mph /  15.8 km/h 11.5 mph /  18.5 km/h 98 % 0.01 in /  0.25 mm
06:08 40.2 °F /  4.6 °C 39.7 °F /  4.3 °C 29.87 in /  1011.4 hPa NNE 10.2 mph /  16.4 km/h 16.0 mph /  25.7 km/h 98 % 0.00 in /  0 mm
06:13 40.2 °F /  4.6 °C 39.7 °F /  4.3 °C 29.88 in /  1011.7 hPa NE 7.0 mph /  11.3 km/h 11.5 mph /  18.5 km/h 98 % 0.00 in /  0 mm
06:18 40.1 °F /  4.5 °C 39.6 °F /  4.2 °C 29.88 in /  1011.7 hPa ENE 7.7 mph /  12.4 km/h 9.2 mph /  14.8 km/h 98 % 0.00 in /  0 mm
06:23 40.0 °F /  4.4 °C 39.5 °F /  4.2 °C 29.88 in /  1011.7 hPa ENE 10.3 mph /  16.6 km/h 15.0 mph /  24.1 km/h 98 % 0.00 in /  0 mm
06:28 40.0 °F /  4.4 °C 39.5 °F /  4.2 °C 29.88 in /  1011.7 hPa East 8.2 mph /  13.2 km/h 11.5 mph /  18.5 km/h 98 % 0.00 in /  0 mm
06:33 40.0 °F /  4.4 °C 39.5 °F /  4.2 °C 29.87 in /  1011.4 hPa ENE 10.3 mph /  16.6 km/h 13.8 mph /  22.2 km/h 98 % 0.00 in /  0 mm
06:38 39.9 °F /  4.4 °C 39.4 °F /  4.1 °C 29.87 in /  1011.4 hPa ENE 9.3 mph /  15 km/h 15.0 mph /  24.1 km/h 98 % 0.00 in /  0 mm
06:43 39.8 °F /  4.3 °C 39.3 °F /  4.1 °C 29.87 in /  1011.4 hPa East 6.9 mph /  11.1 km/h 10.4 mph /  16.7 km/h 98 % 0.00 in /  0 mm
06:48 39.8 °F /  4.3 °C 39.3 °F /  4.1 °C 29.87 in /  1011.4 hPa ENE 10.3 mph /  16.6 km/h 16.1 mph /  25.9 km/h 98 % 0.00 in /  0 mm
06:53 39.8 °F /  4.3 °C 39.3 °F /  4.1 °C 29.87 in /  1011.4 hPa ENE 8.4 mph /  13.5 km/h 11.5 mph /  18.5 km/h 98 % 0.00 in /  0 mm
06:58 39.7 °F /  4.3 °C 38.9 °F /  3.8 °C 29.87 in /  1011.4 hPa NE 7.5 mph /  12.1 km/h 11.5 mph /  18.5 km/h 97 % 0.00 in /  0 mm
07:03 39.7 °F /  4.3 °C 38.9 °F /  3.8 °C 29.87 in /  1011.4 hPa ENE 10.1 mph /  16.3 km/h 11.5 mph /  18.5 km/h 97 % 0.00 in /  0 mm
07:08 39.7 °F /  4.3 °C 38.9 °F /  3.8 °C 29.87 in /  1011.4 hPa ENE 9.5 mph /  15.3 km/h 11.5 mph /  18.5 km/h 97 % 0.00 in /  0 mm
07:14 39.6 °F /  4.2 °C 38.8 °F /  3.8 °C 29.87 in /  1011.4 hPa ENE 6.1 mph /  9.8 km/h 9.2 mph /  14.8 km/h 97 % 0.00 in /  0 mm
07:19 39.6 °F /  4.2 °C 38.8 °F /  3.8 °C 29.87 in /  1011.4 hPa NE 8.2 mph /  13.2 km/h 11.5 mph /  18.5 km/h 97 % 0.00 in /  0 mm
07:24 39.6 °F /  4.2 °C 38.8 °F /  3.8 °C 29.88 in /  1011.7 hPa ENE 5.6 mph /  9 km/h 8.0 mph /  12.9 km/h 97 % 0.00 in /  0 mm
07:29 39.6 °F /  4.2 °C 38.8 °F /  3.8 °C 29.88 in /  1011.7 hPa NE 5.0 mph /  8 km/h 9.0 mph /  14.5 km/h 97 % 0.00 in /  0 mm
07:34 39.5 °F /  4.2 °C 38.7 °F /  3.7 °C 29.89 in /  1012.1 hPa NE 3.0 mph /  4.8 km/h 7.0 mph /  11.3 km/h 97 % 0.00 in /  0 mm
07:39 39.5 °F /  4.2 °C 38.7 °F /  3.7 °C 29.89 in /  1012.1 hPa North 3.3 mph /  5.3 km/h 9.2 mph /  14.8 km/h 97 % 0.00 in /  0 mm
07:44 39.5 °F /  4.2 °C 38.7 °F /  3.7 °C 29.89 in /  1012.1 hPa NE 3.0 mph /  4.8 km/h 10.0 mph /  16.1 km/h 97 % 0.00 in /  0 mm
07:49 39.5 °F /  4.2 °C 38.7 °F /  3.7 °C 29.89 in /  1012.1 hPa NNE 5.0 mph /  8 km/h 7.0 mph /  11.3 km/h 97 % 0.00 in /  0 mm
07:54 39.5 °F /  4.2 °C 38.7 °F /  3.7 °C 29.89 in /  1012.1 hPa NE 3.0 mph /  4.8 km/h 5.0 mph /  8 km/h 97 % 0.00 in /  0 mm
07:59 39.5 °F /  4.2 °C 38.7 °F /  3.7 °C 29.89 in /  1012.1 hPa NNW 2.9 mph /  4.7 km/h 4.6 mph /  7.4 km/h 97 % 0.00 in /  0 mm
08:04 39.4 °F /  4.1 °C 38.6 °F /  3.7 °C 29.90 in /  1012.4 hPa NNE 3.0 mph /  4.8 km/h 9.0 mph /  14.5 km/h 97 % 0.00 in /  0 mm
08:09 39.4 °F /  4.1 °C 38.6 °F /  3.7 °C 29.90 in /  1012.4 hPa NNE 5.0 mph /  8 km/h 6.0 mph /  9.7 km/h 97 % 0.00 in /  0 mm
08:14 39.4 °F /  4.1 °C 38.6 °F /  3.7 °C 29.90 in /  1012.4 hPa NNE 3.0 mph /  4.8 km/h 8.0 mph /  12.9 km/h 97 % 0.00 in /  0 mm
08:19 39.3 °F /  4.1 °C 38.6 °F /  3.7 °C 29.89 in /  1012.1 hPa NNE 5.0 mph /  8 km/h 7.0 mph /  11.3 km/h 97 % 0.00 in /  0 mm
08:24 39.3 °F /  4.1 °C 38.5 °F /  3.6 °C 29.90 in /  1012.4 hPa NNE 3.8 mph /  6.1 km/h 5.0 mph /  8 km/h 97 % 0.00 in /  0 mm
08:29 39.4 °F /  4.1 °C 38.6 °F /  3.7 °C 29.90 in /  1012.4 hPa NE 5.0 mph /  8 km/h 9.0 mph /  14.5 km/h 97 % 0.00 in /  0 mm
08:34 39.4 °F /  4.1 °C 38.6 °F /  3.7 °C 29.90 in /  1012.4 hPa NNE 5.0 mph /  8 km/h 7.0 mph /  11.3 km/h 97 % 0.00 in /  0 mm
08:39 39.4 °F /  4.1 °C 38.6 °F /  3.7 °C 29.90 in /  1012.4 hPa NNE 2.0 mph /  3.2 km/h 7.0 mph /  11.3 km/h 97 % 0.00 in /  0 mm
08:44 39.4 °F /  4.1 °C 38.6 °F /  3.7 °C 29.90 in /  1012.4 hPa NNE 3.0 mph /  4.8 km/h 8.0 mph /  12.9 km/h 97 % 0.00 in /  0 mm
08:49 39.4 °F /  4.1 °C 38.6 °F /  3.7 °C 29.90 in /  1012.4 hPa NNE 3.0 mph /  4.8 km/h 6.0 mph /  9.7 km/h 97 % 0.00 in /  0 mm
08:54 39.4 °F /  4.1 °C 38.6 °F /  3.7 °C 29.90 in /  1012.4 hPa NNE 5.0 mph /  8 km/h 9.0 mph /  14.5 km/h 97 % 0.00 in /  0 mm
08:59 39.4 °F /  4.1 °C 38.6 °F /  3.7 °C 29.89 in /  1012.1 hPa NNE 4.0 mph /  6.4 km/h 5.8 mph /  9.3 km/h 97 % 0.00 in /  0 mm
09:04 39.4 °F /  4.1 °C 38.6 °F /  3.7 °C 29.89 in /  1012.1 hPa NNE 4.9 mph /  7.9 km/h 10.4 mph /  16.7 km/h 97 % 0.00 in /  0 mm
09:09 39.4 °F /  4.1 °C 38.6 °F /  3.7 °C 29.90 in /  1012.4 hPa North 7.8 mph /  12.6 km/h 12.0 mph /  19.3 km/h 97 % 0.00 in /  0 mm
09:14 39.3 °F /  4.1 °C 38.5 °F /  3.6 °C 29.90 in /  1012.4 hPa NE 4.3 mph /  6.9 km/h 8.1 mph /  13 km/h 97 % 0.00 in /  0 mm
09:19 39.3 °F /  4.1 °C 38.5 °F /  3.6 °C 29.90 in /  1012.4 hPa NNE 4.5 mph /  7.2 km/h 6.9 mph /  11.1 km/h 97 % 0.00 in /  0 mm
09:24 39.2 °F /  4 °C 38.4 °F /  3.6 °C 29.91 in /  1012.8 hPa NNE 4.3 mph /  6.9 km/h 6.9 mph /  11.1 km/h 97 % 0.00 in /  0 mm
09:29 39.2 °F /  4 °C 38.4 °F /  3.6 °C 29.91 in /  1012.8 hPa North 3.6 mph /  5.8 km/h 5.0 mph /  8 km/h 97 % 0.00 in /  0 mm
09:34 39.2 °F /  4 °C 38.4 °F /  3.6 °C 29.91 in /  1012.8 hPa NNE 4.4 mph /  7.1 km/h 6.0 mph /  9.7 km/h 97 % 0.00 in /  0 mm
09:39 39.2 °F /  4 °C 38.4 °F /  3.6 °C 29.91 in /  1012.8 hPa NNE 4.9 mph /  7.9 km/h 8.1 mph /  13 km/h 97 % 0.00 in /  0 mm
09:44 39.2 °F /  4 °C 38.4 °F /  3.6 °C 29.91 in /  1012.8 hPa NNE 5.9 mph /  9.5 km/h 10.0 mph /  16.1 km/h 97 % 0.00 in /  0 mm
09:49 39.2 °F /  4 °C 38.4 °F /  3.6 °C 29.91 in /  1012.8 hPa NNE 5.3 mph /  8.5 km/h 8.1 mph /  13 km/h 97 % 0.00 in /  0 mm
09:54 39.2 °F /  4 °C 38.4 °F /  3.6 °C 29.91 in /  1012.8 hPa NE 4.4 mph /  7.1 km/h 8.1 mph /  13 km/h 97 % 0.00 in /  0 mm
09:59 39.1 °F /  3.9 °C 38.3 °F /  3.5 °C 29.91 in /  1012.8 hPa NNE 4.8 mph /  7.7 km/h 10.4 mph /  16.7 km/h 97 % 0.00 in /  0 mm
10:04 39.2 °F /  4 °C 38.4 °F /  3.6 °C 29.91 in /  1012.8 hPa NNE 4.7 mph /  7.6 km/h 6.9 mph /  11.1 km/h 97 % 0.00 in /  0 mm
10:10 39.2 °F /  4 °C 38.4 °F /  3.6 °C 29.91 in /  1012.8 hPa ENE 4.9 mph /  7.9 km/h 6.9 mph /  11.1 km/h 97 % 0.00 in /  0 mm
10:15 39.2 °F /  4 °C 38.4 °F /  3.6 °C 29.91 in /  1012.8 hPa ENE 5.5 mph /  8.9 km/h 9.2 mph /  14.8 km/h 97 % 0.00 in /  0 mm
10:20 39.2 °F /  4 °C 38.4 °F /  3.6 °C 29.91 in /  1012.8 hPa NE 2.5 mph /  4 km/h 5.8 mph /  9.3 km/h 97 % 0.00 in /  0 mm
10:25 39.2 °F /  4 °C 38.4 °F /  3.6 °C 29.91 in /  1012.8 hPa NE 3.8 mph /  6.1 km/h 6.0 mph /  9.7 km/h 97 % 0.00 in /  0 mm
10:32 39.2 °F /  4 °C 38.4 °F /  3.6 °C 29.90 in /  1012.4 hPa NNE 6.0 mph /  9.7 km/h 10.4 mph /  16.7 km/h 97 % 0.00 in /  0 mm
10:37 39.3 °F /  4.1 °C 38.5 °F /  3.6 °C 29.90 in /  1012.4 hPa NNE 4.0 mph /  6.4 km/h 6.9 mph /  11.1 km/h 97 % 0.00 in /  0 mm
10:42 39.3 °F /  4.1 °C 38.5 °F /  3.6 °C 29.90 in /  1012.4 hPa NNE 5.7 mph /  9.2 km/h 10.4 mph /  16.7 km/h 97 % 0.00 in /  0 mm
10:48 39.3 °F /  4.1 °C 38.5 °F /  3.6 °C 29.90 in /  1012.4 hPa NNE 3.8 mph /  6.1 km/h 8.1 mph /  13 km/h 97 % 0.00 in /  0 mm
10:53 39.4 °F /  4.1 °C 38.6 °F /  3.7 °C 29.90 in /  1012.4 hPa NNE 3.1 mph /  5 km/h 5.8 mph /  9.3 km/h 97 % 0.00 in /  0 mm
10:59 39.5 °F /  4.2 °C 38.7 °F /  3.7 °C 29.89 in /  1012.1 hPa NNE 6.8 mph /  10.9 km/h 9.2 mph /  14.8 km/h 97 % 0.00 in /  0 mm
11:04 39.5 °F /  4.2 °C 38.7 °F /  3.7 °C 29.89 in /  1012.1 hPa NNE 6.0 mph /  9.7 km/h 10.0 mph /  16.1 km/h 97 % 0.00 in /  0 mm
11:09 39.5 °F /  4.2 °C 38.7 °F /  3.7 °C 29.88 in /  1011.7 hPa NNE 3.5 mph /  5.6 km/h 6.9 mph /  11.1 km/h 97 % 0.00 in /  0 mm
11:14 39.6 °F /  4.2 °C 38.8 °F /  3.8 °C 29.88 in /  1011.7 hPa NNE 5.0 mph /  8 km/h 8.1 mph /  13 km/h 97 % 0.00 in /  0 mm
11:19 39.7 °F /  4.3 °C 38.9 °F /  3.8 °C 29.88 in /  1011.7 hPa NE 3.7 mph /  6 km/h 6.9 mph /  11.1 km/h 97 % 0.00 in /  0 mm
11:24 39.8 °F /  4.3 °C 39.0 °F /  3.9 °C 29.88 in /  1011.7 hPa North 3.9 mph /  6.3 km/h 6.9 mph /  11.1 km/h 97 % 0.00 in /  0 mm
11:29 39.8 °F /  4.3 °C 39.0 °F /  3.9 °C 29.88 in /  1011.7 hPa NNE 5.3 mph /  8.5 km/h 6.9 mph /  11.1 km/h 97 % 0.00 in /  0 mm
11:34 39.8 °F /  4.3 °C 39.0 °F /  3.9 °C 29.88 in /  1011.7 hPa NNE 4.7 mph /  7.6 km/h 5.8 mph /  9.3 km/h 97 % 0.00 in /  0 mm
11:39 39.7 °F /  4.3 °C 38.9 °F /  3.8 °C 29.88 in /  1011.7 hPa NNE 4.8 mph /  7.7 km/h 6.9 mph /  11.1 km/h 97 % 0.00 in /  0 mm
11:44 39.7 °F /  4.3 °C 38.9 °F /  3.8 °C 29.89 in /  1012.1 hPa NNE 4.6 mph /  7.4 km/h 6.0 mph /  9.7 km/h 97 % 0.00 in /  0 mm
11:49 39.7 °F /  4.3 °C 38.9 °F /  3.8 °C 29.88 in /  1011.7 hPa NNE 3.2 mph /  5.1 km/h 5.0 mph /  8 km/h 97 % 0.00 in /  0 mm
11:59 39.7 °F /  4.3 °C 38.9 °F /  3.8 °C 29.87 in /  1011.4 hPa North 3.2 mph /  5.1 km/h 6.0 mph /  9.7 km/h 97 % 0.00 in /  0 mm
12:05 39.7 °F /  4.3 °C 38.9 °F /  3.8 °C 29.87 in /  1011.4 hPa NNE 4.0 mph /  6.4 km/h 5.8 mph /  9.3 km/h 97 % 0.00 in /  0 mm
12:10 39.8 °F /  4.3 °C 39.0 °F /  3.9 °C 29.87 in /  1011.4 hPa NNE 3.1 mph /  5 km/h 5.0 mph /  8 km/h 97 % 0.00 in /  0 mm
12:15 39.8 °F /  4.3 °C 39.0 °F /  3.9 °C 29.87 in /  1011.4 hPa NE 5.4 mph /  8.7 km/h 6.0 mph /  9.7 km/h 97 % 0.00 in /  0 mm
12:20 39.8 °F /  4.3 °C 39.0 °F /  3.9 °C 29.87 in /  1011.4 hPa NE 4.6 mph /  7.4 km/h 6.9 mph /  11.1 km/h 97 % 0.00 in /  0 mm
12:25 39.8 °F /  4.3 °C 39.0 °F /  3.9 °C 29.87 in /  1011.4 hPa NE 2.4 mph /  3.9 km/h 4.6 mph /  7.4 km/h 97 % 0.00 in /  0 mm
12:30 39.9 °F /  4.4 °C 39.1 °F /  3.9 °C 29.87 in /  1011.4 hPa NNE 4.5 mph /  7.2 km/h 6.0 mph /  9.7 km/h 97 % 0.00 in /  0 mm
12:35 40.0 °F /  4.4 °C 39.2 °F /  4 °C 29.87 in /  1011.4 hPa NNE 5.4 mph /  8.7 km/h 8.1 mph /  13 km/h 97 % 0.00 in /  0 mm
12:40 40.0 °F /  4.4 °C 39.2 °F /  4 °C 29.88 in /  1011.7 hPa NNE 3.0 mph /  4.8 km/h 5.0 mph /  8 km/h 97 % 0.00 in /  0 mm
12:45 40.1 °F /  4.5 °C 39.3 °F /  4.1 °C 29.88 in /  1011.7 hPa NNE 3.5 mph /  5.6 km/h 5.8 mph /  9.3 km/h 97 % 0.00 in /  0 mm
12:50 40.1 °F /  4.5 °C 39.3 °F /  4.1 °C 29.88 in /  1011.7 hPa NNE 4.1 mph /  6.6 km/h 5.8 mph /  9.3 km/h 97 % 0.00 in /  0 mm
12:55 40.2 °F /  4.6 °C 39.4 °F /  4.1 °C 29.88 in /  1011.7 hPa North 5.0 mph /  8 km/h 6.9 mph /  11.1 km/h 97 % 0.00 in /  0 mm
13:00 40.2 °F /  4.6 °C 39.4 °F /  4.1 °C 29.88 in /  1011.7 hPa North 5.0 mph /  8 km/h 8.1 mph /  13 km/h 97 % 0.00 in /  0 mm
13:05 40.2 °F /  4.6 °C 39.2 °F /  4 °C 29.89 in /  1012.1 hPa NNE 4.5 mph /  7.2 km/h 5.8 mph /  9.3 km/h 96 % 0.00 in /  0 mm
13:10 40.2 °F /  4.6 °C 39.2 °F /  4 °C 29.89 in /  1012.1 hPa NNW 4.2 mph /  6.8 km/h 5.8 mph /  9.3 km/h 96 % 0.00 in /  0 mm
13:15 40.2 °F /  4.6 °C 39.2 °F /  4 °C 29.89 in /  1012.1 hPa NNE 2.4 mph /  3.9 km/h 3.5 mph /  5.6 km/h 96 % 0.00 in /  0 mm
13:20 40.3 °F /  4.6 °C 39.3 °F /  4.1 °C 29.89 in /  1012.1 hPa North 2.8 mph /  4.5 km/h 4.6 mph /  7.4 km/h 96 % 0.00 in /  0 mm
13:25 40.3 °F /  4.6 °C 39.3 °F /  4.1 °C 29.89 in /  1012.1 hPa North 1.7 mph /  2.7 km/h 3.5 mph /  5.6 km/h 96 % 0.00 in /  0 mm
13:31 40.3 °F /  4.6 °C 39.3 °F /  4.1 °C 29.89 in /  1012.1 hPa North 2.1 mph /  3.4 km/h 5.8 mph /  9.3 km/h 96 % 0.00 in /  0 mm
13:36 40.4 °F /  4.7 °C 39.4 °F /  4.1 °C 29.89 in /  1012.1 hPa NNW 1.9 mph /  3.1 km/h 5.8 mph /  9.3 km/h 96 % 0.00 in /  0 mm
13:41 40.4 °F /  4.7 °C 39.1 °F /  3.9 °C 29.90 in /  1012.4 hPa North 3.9 mph /  6.3 km/h 5.0 mph /  8 km/h 95 % 0.00 in /  0 mm
13:46 40.4 °F /  4.7 °C 39.1 °F /  3.9 °C 29.90 in /  1012.4 hPa North 5.9 mph /  9.5 km/h 7.0 mph /  11.3 km/h 95 % 0.00 in /  0 mm
13:51 40.4 °F /  4.7 °C 39.1 °F /  3.9 °C 29.90 in /  1012.4 hPa NNW 5.2 mph /  8.4 km/h 6.9 mph /  11.1 km/h 95 % 0.00 in /  0 mm
13:56 40.3 °F /  4.6 °C 39.0 °F /  3.9 °C 29.91 in /  1012.8 hPa North 5.1 mph /  8.2 km/h 9.2 mph /  14.8 km/h 95 % 0.00 in /  0 mm
14:01 40.3 °F /  4.6 °C 39.0 °F /  3.9 °C 29.91 in /  1012.8 hPa North 6.9 mph /  11.1 km/h 10.4 mph /  16.7 km/h 95 % 0.00 in /  0 mm
14:06 40.2 °F /  4.6 °C 38.9 °F /  3.8 °C 29.91 in /  1012.8 hPa NNE 4.8 mph /  7.7 km/h 6.9 mph /  11.1 km/h 95 % 0.00 in /  0 mm
14:11 40.2 °F /  4.6 °C 38.9 °F /  3.8 °C 29.91 in /  1012.8 hPa NE 4.6 mph /  7.4 km/h 6.9 mph /  11.1 km/h 95 % 0.00 in /  0 mm
14:16 40.2 °F /  4.6 °C 38.9 °F /  3.8 °C 29.92 in /  1013.1 hPa North 3.4 mph /  5.5 km/h 5.0 mph /  8 km/h 95 % 0.00 in /  0 mm
14:21 40.2 °F /  4.6 °C 38.9 °F /  3.8 °C 29.92 in /  1013.1 hPa NNE 4.3 mph /  6.9 km/h 5.8 mph /  9.3 km/h 95 % 0.00 in /  0 mm
14:26 40.2 °F /  4.6 °C 38.9 °F /  3.8 °C 29.92 in /  1013.1 hPa NE 2.8 mph /  4.5 km/h 5.8 mph /  9.3 km/h 95 % 0.00 in /  0 mm
14:31 40.2 °F /  4.6 °C 38.9 °F /  3.8 °C 29.92 in /  1013.1 hPa NNE 3.1 mph /  5 km/h 5.0 mph /  8 km/h 95 % 0.00 in /  0 mm
14:36 40.2 °F /  4.6 °C 38.9 °F /  3.8 °C 29.92 in /  1013.1 hPa NNE 3.1 mph /  5 km/h 4.6 mph /  7.4 km/h 95 % 0.00 in /  0 mm
14:41 40.2 °F /  4.6 °C 38.9 °F /  3.8 °C 29.92 in /  1013.1 hPa North 3.3 mph /  5.3 km/h 5.0 mph /  8 km/h 95 % 0.00 in /  0 mm
14:43 40.2 °F /  4.6 °C 38.9 °F /  3.8 °C 29.92 in /  1013.1 hPa NNW 4.8 mph /  7.7 km/h 5.8 mph /  9.3 km/h 95 % 0.00 in /  0 mm
14:48 40.2 °F /  4.6 °C 38.9 °F /  3.8 °C 29.92 in /  1013.1 hPa NNE 3.1 mph /  5 km/h 5.8 mph /  9.3 km/h 95 % 0.00 in /  0 mm
14:53 40.2 °F /  4.6 °C 38.9 °F /  3.8 °C 29.93 in /  1013.4 hPa North 3.5 mph /  5.6 km/h 5.8 mph /  9.3 km/h 95 % 0.00 in /  0 mm
14:58 40.2 °F /  4.6 °C 38.9 °F /  3.8 °C 29.93 in /  1013.4 hPa NNE 4.4 mph /  7.1 km/h 6.9 mph /  11.1 km/h 95 % 0.00 in /  0 mm
15:03 40.1 °F /  4.5 °C 38.8 °F /  3.8 °C 29.93 in /  1013.4 hPa NNE 2.6 mph /  4.2 km/h 5.8 mph /  9.3 km/h 95 % 0.00 in /  0 mm
15:08 40.1 °F /  4.5 °C 38.8 °F /  3.8 °C 29.92 in /  1013.1 hPa NNE 3.9 mph /  6.3 km/h 6.0 mph /  9.7 km/h 95 % 0.00 in /  0 mm
15:13 40.0 °F /  4.4 °C 38.7 °F /  3.7 °C 29.92 in /  1013.1 hPa North 5.2 mph /  8.4 km/h 8.1 mph /  13 km/h 95 % 0.00 in /  0 mm
15:18 40.0 °F /  4.4 °C 38.7 °F /  3.7 °C 29.92 in /  1013.1 hPa North 4.8 mph /  7.7 km/h 6.9 mph /  11.1 km/h 95 % 0.00 in /  0 mm
15:23 40.0 °F /  4.4 °C 38.7 °F /  3.7 °C 29.92 in /  1013.1 hPa NNE 4.3 mph /  6.9 km/h 5.0 mph /  8 km/h 95 % 0.00 in /  0 mm
15:28 40.0 °F /  4.4 °C 38.7 °F /  3.7 °C 29.92 in /  1013.1 hPa North 3.4 mph /  5.5 km/h 6.9 mph /  11.1 km/h 95 % 0.00 in /  0 mm
15:33 40.0 °F /  4.4 °C 38.7 °F /  3.7 °C 29.92 in /  1013.1 hPa NNE 4.3 mph /  6.9 km/h 5.8 mph /  9.3 km/h 95 % 0.00 in /  0 mm
15:38 40.0 °F /  4.4 °C 38.7 °F /  3.7 °C 29.92 in /  1013.1 hPa NNE 3.9 mph /  6.3 km/h 5.8 mph /  9.3 km/h 95 % 0.00 in /  0 mm
15:44 40.0 °F /  4.4 °C 38.7 °F /  3.7 °C 29.93 in /  1013.4 hPa NNE 4.1 mph /  6.6 km/h 5.8 mph /  9.3 km/h 95 % 0.00 in /  0 mm
15:49 40.0 °F /  4.4 °C 38.7 °F /  3.7 °C 29.92 in /  1013.1 hPa NE 0.9 mph /  1.4 km/h 2.3 mph /  3.7 km/h 95 % 0.00 in /  0 mm
15:54 40.0 °F /  4.4 °C 38.7 °F /  3.7 °C 29.92 in /  1013.1 hPa NNE 1.5 mph /  2.4 km/h 2.3 mph /  3.7 km/h 95 % 0.00 in /  0 mm
15:59 40.0 °F /  4.4 °C 38.7 °F /  3.7 °C 29.92 in /  1013.1 hPa NNE 1.0 mph /  1.6 km/h 4.6 mph /  7.4 km/h 95 % 0.00 in /  0 mm
16:04 40.1 °F /  4.5 °C 38.8 °F /  3.8 °C 29.92 in /  1013.1 hPa NNE 1.0 mph /  1.6 km/h 5.0 mph /  8 km/h 95 % 0.00 in /  0 mm
16:09 40.1 °F /  4.5 °C 38.8 °F /  3.8 °C 29.93 in /  1013.4 hPa NE 2.0 mph /  3.2 km/h 3.0 mph /  4.8 km/h 95 % 0.00 in /  0 mm
16:14 40.1 °F /  4.5 °C 38.8 °F /  3.8 °C 29.93 in /  1013.4 hPa NNE 1.9 mph /  3.1 km/h 3.5 mph /  5.6 km/h 95 % 0.00 in /  0 mm
16:19 40.1 °F /  4.5 °C 38.8 °F /  3.8 °C 29.93 in /  1013.4 hPa NNE 1.0 mph /  1.6 km/h 4.0 mph /  6.4 km/h 95 % 0.00 in /  0 mm
16:24 40.2 °F /  4.6 °C 38.9 °F /  3.8 °C 29.94 in /  1013.8 hPa NNE 1.0 mph /  1.6 km/h 3.0 mph /  4.8 km/h 95 % 0.00 in /  0 mm
16:29 40.2 °F /  4.6 °C 38.9 °F /  3.8 °C 29.94 in /  1013.8 hPa NNE 2.0 mph /  3.2 km/h 5.0 mph /  8 km/h 95 % 0.00 in /  0 mm
16:34 40.1 °F /  4.5 °C 38.8 °F /  3.8 °C 29.94 in /  1013.8 hPa NNE 1.0 mph /  1.6 km/h 5.0 mph /  8 km/h 95 % 0.00 in /  0 mm
16:39 40.1 °F /  4.5 °C 38.8 °F /  3.8 °C 29.95 in /  1014.1 hPa NNE 3.0 mph /  4.8 km/h 4.0 mph /  6.4 km/h 95 % 0.00 in /  0 mm
16:44 40.1 °F /  4.5 °C 38.8 °F /  3.8 °C 29.95 in /  1014.1 hPa NNE 1.0 mph /  1.6 km/h 4.0 mph /  6.4 km/h 95 % 0.00 in /  0 mm
16:49 40.1 °F /  4.5 °C 38.5 °F /  3.6 °C 29.96 in /  1014.4 hPa Calm   3.0 mph /  4.8 km/h 94 % 0.00 in /  0 mm
16:54 40.1 °F /  4.5 °C 38.5 °F /  3.6 °C 29.96 in /  1014.4 hPa Calm   2.0 mph /  3.2 km/h 94 % 0.00 in /  0 mm
16:59 40.1 °F /  4.5 °C 38.5 °F /  3.6 °C 29.96 in /  1014.4 hPa North 0.4 mph /  0.6 km/h 1.2 mph /  1.9 km/h 94 % 0.00 in /  0 mm
17:04 40.1 °F /  4.5 °C 38.5 °F /  3.6 °C 29.96 in /  1014.4 hPa Calm     94 % 0.00 in /  0 mm
17:09 40.1 °F /  4.5 °C 38.5 °F /  3.6 °C 29.97 in /  1014.8 hPa Calm     94 % 0.00 in /  0 mm
17:14 40.1 °F /  4.5 °C 38.5 °F /  3.6 °C 29.97 in /  1014.8 hPa Calm     94 % 0.00 in /  0 mm
17:19 40.1 °F /  4.5 °C 38.5 °F /  3.6 °C 29.96 in /  1014.4 hPa Calm     94 % 0.00 in /  0 mm
17:24 40.0 °F /  4.4 °C 38.4 °F /  3.6 °C 29.97 in /  1014.8 hPa Calm     94 % 0.00 in /  0 mm
17:29 40.0 °F /  4.4 °C 38.4 °F /  3.6 °C 29.97 in /  1014.8 hPa WNW 1.0 mph /  1.6 km/h 2.3 mph /  3.7 km/h 94 % 0.00 in /  0 mm
17:34 40.0 °F /  4.4 °C 38.4 °F /  3.6 °C 29.98 in /  1015.1 hPa Calm     94 % 0.00 in /  0 mm
17:39 40.0 °F /  4.4 °C 38.4 °F /  3.6 °C 29.98 in /  1015.1 hPa NW 1.3 mph /  2.1 km/h 3.5 mph /  5.6 km/h 94 % 0.00 in /  0 mm
17:44 40.0 °F /  4.4 °C 38.4 °F /  3.6 °C 29.98 in /  1015.1 hPa NNW 0.6 mph /  1 km/h 3.5 mph /  5.6 km/h 94 % 0.00 in /  0 mm
17:49 40.0 °F /  4.4 °C 38.4 °F /  3.6 °C 29.98 in /  1015.1 hPa North 1.0 mph /  1.6 km/h 3.5 mph /  5.6 km/h 94 % 0.00 in /  0 mm
17:55 40.0 °F /  4.4 °C 38.4 °F /  3.6 °C 29.99 in /  1015.5 hPa North 0.3 mph /  0.5 km/h 1.2 mph /  1.9 km/h 94 % 0.00 in /  0 mm
18:00 40.0 °F /  4.4 °C 38.4 °F /  3.6 °C 29.99 in /  1015.5 hPa Calm     94 % 0.00 in /  0 mm
18:05 40.0 °F /  4.4 °C 38.4 °F /  3.6 °C 29.99 in /  1015.5 hPa Calm     94 % 0.00 in /  0 mm
18:10 40.0 °F /  4.4 °C 38.4 °F /  3.6 °C 29.99 in /  1015.5 hPa North 0.2 mph /  0.3 km/h 2.0 mph /  3.2 km/h 94 % 0.00 in /  0 mm
18:15 40.0 °F /  4.4 °C 38.4 °F /  3.6 °C 30.00 in /  1015.8 hPa NW 0.2 mph /  0.3 km/h 2.3 mph /  3.7 km/h 94 % 0.00 in /  0 mm
18:20 40.0 °F /  4.4 °C 38.4 °F /  3.6 °C 30.00 in /  1015.8 hPa NW 0.4 mph /  0.6 km/h 2.3 mph /  3.7 km/h 94 % 0.00 in /  0 mm
18:25 40.0 °F /  4.4 °C 38.4 °F /  3.6 °C 30.00 in /  1015.8 hPa North 0.2 mph /  0.3 km/h 2.3 mph /  3.7 km/h 94 % 0.00 in /  0 mm
18:30 40.0 °F /  4.4 °C 38.4 °F /  3.6 °C 30.00 in /  1015.8 hPa North 0.3 mph /  0.5 km/h 2.3 mph /  3.7 km/h 94 % 0.00 in /  0 mm
18:35 40.0 °F /  4.4 °C 38.4 °F /  3.6 °C 30.00 in /  1015.8 hPa North 0.6 mph /  1 km/h 2.3 mph /  3.7 km/h 94 % 0.00 in /  0 mm
18:40 40.0 °F /  4.4 °C 38.4 °F /  3.6 °C 30.00 in /  1015.8 hPa Calm     94 % 0.00 in /  0 mm
18:45 40.0 °F /  4.4 °C 38.4 °F /  3.6 °C 30.00 in /  1015.8 hPa NNW 1.5 mph /  2.4 km/h 3.5 mph /  5.6 km/h 94 % 0.00 in /  0 mm
18:47 40.0 °F /  4.4 °C 38.4 °F /  3.6 °C 30.00 in /  1015.8 hPa Calm   2.3 mph /  3.7 km/h 94 % 0.00 in /  0 mm
18:52 40.0 °F /  4.4 °C 38.4 °F /  3.6 °C 30.00 in /  1015.8 hPa Calm     94 % 0.00 in /  0 mm
18:57 40.0 °F /  4.4 °C 38.4 °F /  3.6 °C 30.00 in /  1015.8 hPa Calm     94 % 0.00 in /  0 mm
19:02 40.0 °F /  4.4 °C 38.4 °F /  3.6 °C 30.00 in /  1015.8 hPa Calm     94 % 0.00 in /  0 mm
19:07 40.0 °F /  4.4 °C 38.4 °F /  3.6 °C 30.00 in /  1015.8 hPa Calm   1.0 mph /  1.6 km/h 94 % 0.00 in /  0 mm
19:12 40.0 °F /  4.4 °C 38.4 °F /  3.6 °C 30.01 in /  1016.1 hPa NNW 0.6 mph /  1 km/h   94 % 0.00 in /  0 mm
19:17 40.0 °F /  4.4 °C 38.4 °F /  3.6 °C 30.01 in /  1016.1 hPa Calm   1.2 mph /  1.9 km/h 94 % 0.00 in /  0 mm
19:22 40.0 °F /  4.4 °C 38.4 °F /  3.6 °C 30.01 in /  1016.1 hPa Calm   1.2 mph /  1.9 km/h 94 % 0.00 in /  0 mm
19:27 40.0 °F /  4.4 °C 38.4 °F /  3.6 °C 30.02 in /  1016.5 hPa Calm   1.2 mph /  1.9 km/h 94 % 0.00 in /  0 mm
19:32 40.0 °F /  4.4 °C 38.4 °F /  3.6 °C 30.01 in /  1016.1 hPa Calm     94 % 0.00 in /  0 mm
19:37 39.9 °F /  4.4 °C 38.3 °F /  3.5 °C 30.01 in /  1016.1 hPa Calm     94 % 0.00 in /  0 mm
19:42 39.9 °F /  4.4 °C 38.3 °F /  3.5 °C 30.01 in /  1016.1 hPa Calm   1.2 mph /  1.9 km/h 94 % 0.00 in /  0 mm
19:47 39.9 °F /  4.4 °C 38.3 °F /  3.5 °C 30.01 in /  1016.1 hPa Calm     94 % 0.00 in /  0 mm
19:52 39.8 °F /  4.3 °C 38.2 °F /  3.4 °C 30.01 in /  1016.1 hPa Calm     94 % 0.00 in /  0 mm
19:57 39.8 °F /  4.3 °C 38.2 °F /  3.4 °C 30.01 in /  1016.1 hPa Calm     94 % 0.00 in /  0 mm
20:02 39.8 °F /  4.3 °C 38.2 °F /  3.4 °C 30.01 in /  1016.1 hPa Calm     94 % 0.00 in /  0 mm
20:07 39.8 °F /  4.3 °C 38.2 °F /  3.4 °C 30.00 in /  1015.8 hPa Calm     94 % 0.00 in /  0 mm
20:13 39.8 °F /  4.3 °C 38.2 °F /  3.4 °C 30.00 in /  1015.8 hPa Calm     94 % 0.00 in /  0 mm
20:18 39.8 °F /  4.3 °C 38.2 °F /  3.4 °C 30.00 in /  1015.8 hPa Calm     94 % 0.00 in /  0 mm
20:23 39.7 °F /  4.3 °C 38.1 °F /  3.4 °C 30.00 in /  1015.8 hPa Calm     94 % 0.00 in /  0 mm
20:28 39.8 °F /  4.3 °C 38.2 °F /  3.4 °C 30.00 in /  1015.8 hPa Calm     94 % 0.00 in /  0 mm
20:33 39.8 °F /  4.3 °C 38.2 °F /  3.4 °C 29.99 in /  1015.5 hPa Calm     94 % 0.00 in /  0 mm
20:38 39.8 °F /  4.3 °C 38.2 °F /  3.4 °C 29.99 in /  1015.5 hPa Calm     94 % 0.00 in /  0 mm
20:43 39.7 °F /  4.3 °C 38.4 °F /  3.6 °C 29.99 in /  1015.5 hPa Calm     95 % 0.00 in /  0 mm
20:48 39.7 °F /  4.3 °C 38.4 °F /  3.6 °C 29.98 in /  1015.1 hPa Calm     95 % 0.00 in /  0 mm
20:53 39.7 °F /  4.3 °C 38.4 °F /  3.6 °C 29.98 in /  1015.1 hPa Calm     95 % 0.00 in /  0 mm
20:58 39.7 °F /  4.3 °C 38.4 °F /  3.6 °C 29.98 in /  1015.1 hPa Calm     95 % 0.00 in /  0 mm
21:03 39.6 °F /  4.2 °C 38.3 °F /  3.5 °C 29.99 in /  1015.5 hPa Calm     95 % 0.00 in /  0 mm
21:08 39.6 °F /  4.2 °C 38.3 °F /  3.5 °C 29.99 in /  1015.5 hPa Calm     95 % 0.00 in /  0 mm
21:13 39.5 °F /  4.2 °C 38.2 °F /  3.4 °C 30.00 in /  1015.8 hPa NNW 0.4 mph /  0.6 km/h 2.3 mph /  3.7 km/h 95 % 0.00 in /  0 mm
21:18 39.5 °F /  4.2 °C 38.2 °F /  3.4 °C 30.00 in /  1015.8 hPa NNW 0.4 mph /  0.6 km/h 2.3 mph /  3.7 km/h 95 % 0.00 in /  0 mm
21:23 39.5 °F /  4.2 °C 38.2 °F /  3.4 °C 30.00 in /  1015.8 hPa NNW 0.8 mph /  1.3 km/h 3.5 mph /  5.6 km/h 95 % 0.00 in /  0 mm
21:28 39.4 °F /  4.1 °C 38.1 °F /  3.4 °C 29.99 in /  1015.5 hPa Calm   2.0 mph /  3.2 km/h 95 % 0.00 in /  0 mm
21:33 39.4 °F /  4.1 °C 38.1 °F /  3.4 °C 29.98 in /  1015.1 hPa NNW 1.1 mph /  1.8 km/h 2.3 mph /  3.7 km/h 95 % 0.00 in /  0 mm
21:39 39.3 °F /  4.1 °C 38.0 °F /  3.3 °C 29.98 in /  1015.1 hPa NNW 0.8 mph /  1.3 km/h 2.3 mph /  3.7 km/h 95 % 0.00 in /  0 mm
21:44 39.3 °F /  4.1 °C 38.0 °F /  3.3 °C 29.98 in /  1015.1 hPa NNE 2.9 mph /  4.7 km/h 3.5 mph /  5.6 km/h 95 % 0.00 in /  0 mm
21:49 39.3 °F /  4.1 °C 38.0 °F /  3.3 °C 29.98 in /  1015.1 hPa NNE 2.0 mph /  3.2 km/h 3.5 mph /  5.6 km/h 95 % 0.00 in /  0 mm
21:54 39.3 °F /  4.1 °C 38.0 °F /  3.3 °C 29.98 in /  1015.1 hPa NNE 1.1 mph /  1.8 km/h 3.5 mph /  5.6 km/h 95 % 0.00 in /  0 mm
21:59 39.2 °F /  4 °C 37.9 °F /  3.3 °C 29.98 in /  1015.1 hPa NE 1.0 mph /  1.6 km/h 3.5 mph /  5.6 km/h 95 % 0.00 in /  0 mm
22:04 39.2 °F /  4 °C 37.9 °F /  3.3 °C 29.99 in /  1015.5 hPa NNE 1.0 mph /  1.6 km/h 5.0 mph /  8 km/h 95 % 0.00 in /  0 mm
22:09 39.2 °F /  4 °C 37.9 °F /  3.3 °C 29.99 in /  1015.5 hPa NNE 1.0 mph /  1.6 km/h 3.0 mph /  4.8 km/h 95 % 0.00 in /  0 mm
22:14 39.2 °F /  4 °C 37.9 °F /  3.3 °C 29.99 in /  1015.5 hPa North 2.0 mph /  3.2 km/h 3.0 mph /  4.8 km/h 95 % 0.00 in /  0 mm
22:19 39.1 °F /  3.9 °C 37.8 °F /  3.2 °C 30.00 in /  1015.8 hPa North 1.0 mph /  1.6 km/h 3.0 mph /  4.8 km/h 95 % 0.00 in /  0 mm
22:24 39.2 °F /  4 °C 37.9 °F /  3.3 °C 30.00 in /  1015.8 hPa NNW 0.3 mph /  0.5 km/h 2.3 mph /  3.7 km/h 95 % 0.00 in /  0 mm
22:29 39.2 °F /  4 °C 37.9 °F /  3.3 °C 30.00 in /  1015.8 hPa NNW 1.0 mph /  1.6 km/h 2.0 mph /  3.2 km/h 95 % 0.00 in /  0 mm
22:34 39.2 °F /  4 °C 37.9 °F /  3.3 °C 30.00 in /  1015.8 hPa Calm     95 % 0.00 in /  0 mm
22:39 39.2 °F /  4 °C 37.8 °F /  3.2 °C 30.00 in /  1015.8 hPa Calm   2.0 mph /  3.2 km/h 95 % 0.00 in /  0 mm
22:44 39.1 °F /  3.9 °C 37.8 °F /  3.2 °C 30.00 in /  1015.8 hPa Calm   3.0 mph /  4.8 km/h 95 % 0.00 in /  0 mm
22:49 39.2 °F /  4 °C 37.9 °F /  3.3 °C 30.00 in /  1015.8 hPa North 0.2 mph /  0.3 km/h 1.2 mph /  1.9 km/h 95 % 0.00 in /  0 mm
22:54 39.1 °F /  3.9 °C 37.8 °F /  3.2 °C 30.00 in /  1015.8 hPa Calm   2.0 mph /  3.2 km/h 95 % 0.00 in /  0 mm
22:59 39.2 °F /  4 °C 37.9 °F /  3.3 °C 30.00 in /  1015.8 hPa Calm   1.2 mph /  1.9 km/h 95 % 0.00 in /  0 mm
23:04 39.1 °F /  3.9 °C 37.8 °F /  3.2 °C 30.00 in /  1015.8 hPa Calm   2.0 mph /  3.2 km/h 95 % 0.00 in /  0 mm
23:09 39.1 °F /  3.9 °C 37.8 °F /  3.2 °C 30.00 in /  1015.8 hPa Calm   3.0 mph /  4.8 km/h 95 % 0.00 in /  0 mm
23:14 39.1 °F /  3.9 °C 37.8 °F /  3.2 °C 29.99 in /  1015.5 hPa North 1.0 mph /  1.6 km/h 5.0 mph /  8 km/h 95 % 0.00 in /  0 mm
23:19 39.0 °F /  3.9 °C 37.7 °F /  3.2 °C 29.99 in /  1015.5 hPa North 1.0 mph /  1.6 km/h 4.0 mph /  6.4 km/h 95 % 0.00 in /  0 mm
23:24 39.0 °F /  3.9 °C 37.7 °F /  3.2 °C 29.99 in /  1015.5 hPa Calm     95 % 0.00 in /  0 mm
23:29 38.9 °F /  3.8 °C 37.6 °F /  3.1 °C 29.98 in /  1015.1 hPa North 1.0 mph /  1.6 km/h 3.0 mph /  4.8 km/h 95 % 0.00 in /  0 mm
23:34 38.9 °F /  3.8 °C 37.3 °F /  2.9 °C 29.98 in /  1015.1 hPa Calm   1.2 mph /  1.9 km/h 94 % 0.00 in /  0 mm
23:39 38.9 °F /  3.8 °C 37.3 °F /  2.9 °C 29.98 in /  1015.1 hPa Calm   2.0 mph /  3.2 km/h 94 % 0.00 in /  0 mm
23:44 38.8 °F /  3.8 °C 37.2 °F /  2.9 °C 29.98 in /  1015.1 hPa North 1.0 mph /  1.6 km/h 2.3 mph /  3.7 km/h 94 % 0.00 in /  0 mm
23:49 38.8 °F /  3.8 °C 37.2 °F /  2.9 °C 29.98 in /  1015.1 hPa North 1.0 mph /  1.6 km/h 3.0 mph /  4.8 km/h 94 % 0.00 in /  0 mm
23:54 38.8 °F /  3.8 °C 37.2 °F /  2.9 °C 29.97 in /  1014.8 hPa Calm   3.0 mph /  4.8 km/h 94 % 0.00 in /  0 mm
23:59 38.8 °F /  3.8 °C 37.2 °F /  2.9 °C 29.97 in /  1014.8 hPa Calm     94 % 0.00 in /  0 mm
Crab Meadow Weather
Compliments of Weather Underground - 3 mb

Script developed by  Jim McMurry - jmcmurry@mwt.net Adapted for the template by  Wim van der Kuil - Leuven-Template.eu

Extremes: A record low of - 128.6 degrees F was recorded at Vostok, Antarctica.